sensor_id;sensor_type;location;lat;lon;timestamp;P1;durP1;ratioP1;P2;durP2;ratioP2
25717;SDS011;13574;52.040;5.692;2023-05-16T00:00:18;12.40;;;1.98;;
25717;SDS011;13574;52.040;5.692;2023-05-16T00:02:44;9.48;;;1.90;;
25717;SDS011;13574;52.040;5.692;2023-05-16T00:05:09;10.10;;;2.00;;
25717;SDS011;13574;52.040;5.692;2023-05-16T00:07:38;9.65;;;1.95;;
25717;SDS011;13574;52.040;5.692;2023-05-16T00:10:06;12.85;;;2.17;;
25717;SDS011;13574;52.040;5.692;2023-05-16T00:12:32;5.57;;;1.95;;
25717;SDS011;13574;52.040;5.692;2023-05-16T00:15:00;11.10;;;2.47;;
25717;SDS011;13574;52.040;5.692;2023-05-16T00:17:26;12.45;;;1.92;;
25717;SDS011;13574;52.040;5.692;2023-05-16T00:19:53;7.22;;;1.98;;
25717;SDS011;13574;52.040;5.692;2023-05-16T00:22:25;8.85;;;2.03;;
25717;SDS011;13574;52.040;5.692;2023-05-16T00:24:51;5.45;;;1.73;;
25717;SDS011;13574;52.040;5.692;2023-05-16T00:27:17;10.68;;;1.83;;
25717;SDS011;13574;52.040;5.692;2023-05-16T00:29:42;8.50;;;1.83;;
25717;SDS011;13574;52.040;5.692;2023-05-16T00:32:08;7.65;;;1.88;;
25717;SDS011;13574;52.040;5.692;2023-05-16T00:34:34;5.15;;;1.90;;
25717;SDS011;13574;52.040;5.692;2023-05-16T00:37:00;7.38;;;1.88;;
25717;SDS011;13574;52.040;5.692;2023-05-16T00:39:26;9.82;;;2.03;;
25717;SDS011;13574;52.040;5.692;2023-05-16T00:41:52;8.93;;;2.00;;
25717;SDS011;13574;52.040;5.692;2023-05-16T00:44:17;8.32;;;1.80;;
25717;SDS011;13574;52.040;5.692;2023-05-16T00:46:43;7.75;;;1.80;;
25717;SDS011;13574;52.040;5.692;2023-05-16T00:49:09;5.05;;;1.80;;
25717;SDS011;13574;52.040;5.692;2023-05-16T00:51:35;5.88;;;1.52;;
25717;SDS011;13574;52.040;5.692;2023-05-16T00:54:03;8.65;;;2.05;;
25717;SDS011;13574;52.040;5.692;2023-05-16T00:56:29;9.15;;;1.92;;
25717;SDS011;13574;52.040;5.692;2023-05-16T00:58:55;5.63;;;2.00;;
25717;SDS011;13574;52.040;5.692;2023-05-16T01:01:22;7.47;;;1.75;;
25717;SDS011;13574;52.040;5.692;2023-05-16T01:03:49;9.00;;;1.90;;
25717;SDS011;13574;52.040;5.692;2023-05-16T01:06:15;7.60;;;1.60;;
25717;SDS011;13574;52.040;5.692;2023-05-16T01:08:40;7.95;;;1.83;;
25717;SDS011;13574;52.040;5.692;2023-05-16T01:14:25;8.20;;;1.95;;
25717;SDS011;13574;52.040;5.692;2023-05-16T01:17:19;6.45;;;2.22;;
25717;SDS011;13574;52.040;5.692;2023-05-16T01:20:20;8.07;;;2.25;;
25717;SDS011;13574;52.040;5.692;2023-05-16T01:25:49;10.20;;;1.73;;
25717;SDS011;13574;52.040;5.692;2023-05-16T01:28:27;9.25;;;1.67;;
25717;SDS011;13574;52.040;5.692;2023-05-16T01:30:54;5.70;;;1.65;;
25717;SDS011;13574;52.040;5.692;2023-05-16T01:33:20;9.52;;;1.92;;
25717;SDS011;13574;52.040;5.692;2023-05-16T01:35:58;9.90;;;1.83;;
25717;SDS011;13574;52.040;5.692;2023-05-16T01:38:34;9.73;;;1.70;;
25717;SDS011;13574;52.040;5.692;2023-05-16T01:41:24;11.80;;;1.90;;
25717;SDS011;13574;52.040;5.692;2023-05-16T01:44:10;10.85;;;1.92;;
25717;SDS011;13574;52.040;5.692;2023-05-16T01:46:46;9.27;;;1.65;;
25717;SDS011;13574;52.040;5.692;2023-05-16T01:49:19;6.78;;;1.67;;
25717;SDS011;13574;52.040;5.692;2023-05-16T01:51:55;6.70;;;1.58;;
25717;SDS011;13574;52.040;5.692;2023-05-16T01:54:25;7.55;;;1.70;;
25717;SDS011;13574;52.040;5.692;2023-05-16T01:56:55;7.57;;;2.15;;
25717;SDS011;13574;52.040;5.692;2023-05-16T01:59:22;7.80;;;1.50;;
25717;SDS011;13574;52.040;5.692;2023-05-16T02:01:49;8.38;;;1.80;;
25717;SDS011;13574;52.040;5.692;2023-05-16T02:04:18;8.93;;;1.60;;
25717;SDS011;13574;52.040;5.692;2023-05-16T02:06:43;7.40;;;1.77;;
25717;SDS011;13574;52.040;5.692;2023-05-16T02:09:10;11.80;;;1.70;;
25717;SDS011;13574;52.040;5.692;2023-05-16T02:11:35;7.93;;;1.45;;
25717;SDS011;13574;52.040;5.692;2023-05-16T02:14:01;7.57;;;1.58;;
25717;SDS011;13574;52.040;5.692;2023-05-16T02:16:28;5.68;;;1.23;;
25717;SDS011;13574;52.040;5.692;2023-05-16T02:18:54;6.57;;;1.67;;
25717;SDS011;13574;52.040;5.692;2023-05-16T02:21:20;6.63;;;1.40;;
25717;SDS011;13574;52.040;5.692;2023-05-16T02:23:46;6.30;;;1.50;;
25717;SDS011;13574;52.040;5.692;2023-05-16T02:26:11;6.18;;;1.42;;
25717;SDS011;13574;52.040;5.692;2023-05-16T02:28:37;4.35;;;1.30;;
25717;SDS011;13574;52.040;5.692;2023-05-16T02:31:03;5.22;;;1.60;;
25717;SDS011;13574;52.040;5.692;2023-05-16T02:33:29;7.47;;;1.58;;
25717;SDS011;13574;52.040;5.692;2023-05-16T02:35:55;3.88;;;1.67;;
25717;SDS011;13574;52.040;5.692;2023-05-16T02:38:20;4.65;;;1.40;;
25717;SDS011;13574;52.040;5.692;2023-05-16T02:40:46;8.98;;;1.40;;
25717;SDS011;13574;52.040;5.692;2023-05-16T02:43:12;8.63;;;1.48;;
25717;SDS011;13574;52.040;5.692;2023-05-16T02:45:38;11.10;;;1.92;;
25717;SDS011;13574;52.040;5.692;2023-05-16T02:48:04;3.90;;;1.38;;
25717;SDS011;13574;52.040;5.692;2023-05-16T02:50:29;6.80;;;1.63;;
25717;SDS011;13574;52.040;5.692;2023-05-16T02:52:55;5.15;;;1.05;;
25717;SDS011;13574;52.040;5.692;2023-05-16T02:55:23;10.27;;;1.85;;
25717;SDS011;13574;52.040;5.692;2023-05-16T02:57:50;7.68;;;1.50;;
25717;SDS011;13574;52.040;5.692;2023-05-16T03:00:15;7.93;;;2.00;;
25717;SDS011;13574;52.040;5.692;2023-05-16T03:02:42;6.68;;;1.38;;
25717;SDS011;13574;52.040;5.692;2023-05-16T03:05:08;7.63;;;1.58;;
25717;SDS011;13574;52.040;5.692;2023-05-16T03:07:35;6.38;;;1.73;;
25717;SDS011;13574;52.040;5.692;2023-05-16T03:10:03;7.25;;;1.80;;
25717;SDS011;13574;52.040;5.692;2023-05-16T03:12:29;7.15;;;1.60;;
25717;SDS011;13574;52.040;5.692;2023-05-16T03:14:55;9.30;;;1.63;;
25717;SDS011;13574;52.040;5.692;2023-05-16T03:17:21;11.82;;;2.08;;
25717;SDS011;13574;52.040;5.692;2023-05-16T03:19:46;7.55;;;1.90;;
25717;SDS011;13574;52.040;5.692;2023-05-16T03:22:13;6.60;;;1.40;;
25717;SDS011;13574;52.040;5.692;2023-05-16T03:24:38;8.60;;;1.80;;
25717;SDS011;13574;52.040;5.692;2023-05-16T03:27:04;8.15;;;1.55;;
25717;SDS011;13574;52.040;5.692;2023-05-16T03:29:30;7.07;;;1.80;;
25717;SDS011;13574;52.040;5.692;2023-05-16T03:31:56;8.60;;;1.55;;
25717;SDS011;13574;52.040;5.692;2023-05-16T03:34:21;7.15;;;1.70;;
25717;SDS011;13574;52.040;5.692;2023-05-16T03:36:50;5.97;;;1.40;;
25717;SDS011;13574;52.040;5.692;2023-05-16T03:39:16;5.82;;;1.88;;
25717;SDS011;13574;52.040;5.692;2023-05-16T03:41:42;6.65;;;1.60;;
25717;SDS011;13574;52.040;5.692;2023-05-16T03:44:08;9.88;;;2.45;;
25717;SDS011;13574;52.040;5.692;2023-05-16T03:46:34;10.27;;;1.75;;
25717;SDS011;13574;52.040;5.692;2023-05-16T03:49:00;6.45;;;1.77;;
25717;SDS011;13574;52.040;5.692;2023-05-16T03:51:26;4.63;;;1.42;;
25717;SDS011;13574;52.040;5.692;2023-05-16T03:53:52;6.30;;;1.70;;
25717;SDS011;13574;52.040;5.692;2023-05-16T03:56:18;4.72;;;1.83;;
25717;SDS011;13574;52.040;5.692;2023-05-16T03:58:44;9.68;;;1.90;;
25717;SDS011;13574;52.040;5.692;2023-05-16T04:01:09;6.35;;;1.65;;
25717;SDS011;13574;52.040;5.692;2023-05-16T04:03:35;6.30;;;1.70;;
25717;SDS011;13574;52.040;5.692;2023-05-16T04:06:02;9.45;;;2.28;;
25717;SDS011;13574;52.040;5.692;2023-05-16T04:08:28;6.22;;;1.88;;
25717;SDS011;13574;52.040;5.692;2023-05-16T04:10:54;10.82;;;2.22;;
25717;SDS011;13574;52.040;5.692;2023-05-16T04:13:19;4.75;;;1.88;;
25717;SDS011;13574;52.040;5.692;2023-05-16T04:15:45;13.05;;;2.72;;
25717;SDS011;13574;52.040;5.692;2023-05-16T04:18:11;8.23;;;1.95;;
25717;SDS011;13574;52.040;5.692;2023-05-16T04:20:37;7.07;;;1.65;;
25717;SDS011;13574;52.040;5.692;2023-05-16T04:23:03;5.35;;;2.03;;
25717;SDS011;13574;52.040;5.692;2023-05-16T04:25:28;5.75;;;1.88;;
25717;SDS011;13574;52.040;5.692;2023-05-16T04:27:55;6.70;;;2.15;;
25717;SDS011;13574;52.040;5.692;2023-05-16T04:30:21;7.55;;;2.00;;
25717;SDS011;13574;52.040;5.692;2023-05-16T04:32:46;6.20;;;1.63;;
25717;SDS011;13574;52.040;5.692;2023-05-16T04:35:12;9.32;;;2.05;;
25717;SDS011;13574;52.040;5.692;2023-05-16T04:37:38;7.07;;;1.75;;
25717;SDS011;13574;52.040;5.692;2023-05-16T04:40:04;5.45;;;1.75;;
25717;SDS011;13574;52.040;5.692;2023-05-16T04:42:31;12.77;;;1.95;;
25717;SDS011;13574;52.040;5.692;2023-05-16T04:44:57;6.25;;;1.70;;
25717;SDS011;13574;52.040;5.692;2023-05-16T04:47:23;5.28;;;1.60;;
25717;SDS011;13574;52.040;5.692;2023-05-16T04:49:48;5.25;;;1.80;;
25717;SDS011;13574;52.040;5.692;2023-05-16T04:52:15;7.20;;;2.10;;
25717;SDS011;13574;52.040;5.692;2023-05-16T04:54:41;7.80;;;2.30;;
25717;SDS011;13574;52.040;5.692;2023-05-16T04:57:06;9.27;;;1.70;;
25717;SDS011;13574;52.040;5.692;2023-05-16T04:59:32;9.95;;;1.88;;
25717;SDS011;13574;52.040;5.692;2023-05-16T05:01:57;9.80;;;2.28;;
25717;SDS011;13574;52.040;5.692;2023-05-16T05:04:23;8.98;;;2.00;;
25717;SDS011;13574;52.040;5.692;2023-05-16T05:06:49;10.57;;;2.22;;
25717;SDS011;13574;52.040;5.692;2023-05-16T05:09:14;8.52;;;1.90;;
25717;SDS011;13574;52.040;5.692;2023-05-16T05:11:41;7.00;;;1.77;;
25717;SDS011;13574;52.040;5.692;2023-05-16T05:14:06;6.40;;;1.70;;
25717;SDS011;13574;52.040;5.692;2023-05-16T05:16:32;9.90;;;1.98;;
25717;SDS011;13574;52.040;5.692;2023-05-16T05:18:58;8.98;;;1.73;;
25717;SDS011;13574;52.040;5.692;2023-05-16T05:21:24;5.13;;;1.65;;
25717;SDS011;13574;52.040;5.692;2023-05-16T05:23:50;8.60;;;1.90;;
25717;SDS011;13574;52.040;5.692;2023-05-16T05:26:16;7.93;;;2.95;;
25717;SDS011;13574;52.040;5.692;2023-05-16T05:28:42;6.07;;;1.60;;
25717;SDS011;13574;52.040;5.692;2023-05-16T05:31:10;6.47;;;1.92;;
25717;SDS011;13574;52.040;5.692;2023-05-16T05:33:35;7.32;;;1.92;;
25717;SDS011;13574;52.040;5.692;2023-05-16T05:36:01;8.80;;;2.00;;
25717;SDS011;13574;52.040;5.692;2023-05-16T05:38:27;8.57;;;2.03;;
25717;SDS011;13574;52.040;5.692;2023-05-16T05:40:53;6.05;;;1.40;;
25717;SDS011;13574;52.040;5.692;2023-05-16T05:43:18;5.03;;;1.52;;
25717;SDS011;13574;52.040;5.692;2023-05-16T05:45:44;6.22;;;1.63;;
25717;SDS011;13574;52.040;5.692;2023-05-16T05:48:10;8.98;;;1.75;;
25717;SDS011;13574;52.040;5.692;2023-05-16T05:50:36;6.82;;;1.80;;
25717;SDS011;13574;52.040;5.692;2023-05-16T05:53:02;7.10;;;1.73;;
25717;SDS011;13574;52.040;5.692;2023-05-16T05:55:27;7.53;;;1.60;;
25717;SDS011;13574;52.040;5.692;2023-05-16T05:57:53;4.80;;;1.35;;
25717;SDS011;13574;52.040;5.692;2023-05-16T06:00:19;8.50;;;1.73;;
25717;SDS011;13574;52.040;5.692;2023-05-16T06:02:45;10.40;;;1.60;;
25717;SDS011;13574;52.040;5.692;2023-05-16T06:05:12;5.80;;;1.50;;
25717;SDS011;13574;52.040;5.692;2023-05-16T06:07:37;5.97;;;1.70;;
25717;SDS011;13574;52.040;5.692;2023-05-16T06:10:03;4.47;;;1.50;;
25717;SDS011;13574;52.040;5.692;2023-05-16T06:12:30;6.78;;;1.60;;
25717;SDS011;13574;52.040;5.692;2023-05-16T06:14:56;7.55;;;1.60;;
25717;SDS011;13574;52.040;5.692;2023-05-16T06:17:21;7.22;;;1.60;;
25717;SDS011;13574;52.040;5.692;2023-05-16T06:19:47;8.63;;;1.70;;
25717;SDS011;13574;52.040;5.692;2023-05-16T06:22:13;6.63;;;1.42;;
25717;SDS011;13574;52.040;5.692;2023-05-16T06:24:38;4.75;;;1.52;;
25717;SDS011;13574;52.040;5.692;2023-05-16T06:27:04;6.35;;;1.20;;
25717;SDS011;13574;52.040;5.692;2023-05-16T06:29:30;6.47;;;1.90;;
25717;SDS011;13574;52.040;5.692;2023-05-16T06:31:56;4.90;;;1.05;;
25717;SDS011;13574;52.040;5.692;2023-05-16T06:34:21;6.07;;;1.02;;
25717;SDS011;13574;52.040;5.692;2023-05-16T06:36:53;5.20;;;1.00;;
25717;SDS011;13574;52.040;5.692;2023-05-16T06:39:19;5.47;;;1.02;;
25717;SDS011;13574;52.040;5.692;2023-05-16T06:41:44;4.70;;;1.05;;
25717;SDS011;13574;52.040;5.692;2023-05-16T06:44:10;7.25;;;1.08;;
25717;SDS011;13574;52.040;5.692;2023-05-16T06:46:36;5.03;;;1.00;;
25717;SDS011;13574;52.040;5.692;2023-05-16T06:49:02;9.48;;;1.30;;
25717;SDS011;13574;52.040;5.692;2023-05-16T06:51:28;4.40;;;0.85;;
25717;SDS011;13574;52.040;5.692;2023-05-16T06:53:55;2.83;;;0.70;;
25717;SDS011;13574;52.040;5.692;2023-05-16T06:56:21;5.80;;;1.25;;
25717;SDS011;13574;52.040;5.692;2023-05-16T06:58:47;4.18;;;0.85;;
25717;SDS011;13574;52.040;5.692;2023-05-16T07:01:13;4.57;;;0.77;;
25717;SDS011;13574;52.040;5.692;2023-05-16T07:03:39;4.72;;;1.05;;
25717;SDS011;13574;52.040;5.692;2023-05-16T07:06:05;5.68;;;1.17;;
25717;SDS011;13574;52.040;5.692;2023-05-16T07:08:31;4.47;;;0.90;;
25717;SDS011;13574;52.040;5.692;2023-05-16T07:10:57;5.18;;;0.85;;
25717;SDS011;13574;52.040;5.692;2023-05-16T07:13:22;4.22;;;1.05;;
25717;SDS011;13574;52.040;5.692;2023-05-16T07:15:48;4.55;;;0.90;;
25717;SDS011;13574;52.040;5.692;2023-05-16T07:18:14;3.03;;;0.73;;
25717;SDS011;13574;52.040;5.692;2023-05-16T07:20:40;4.03;;;0.65;;
25717;SDS011;13574;52.040;5.692;2023-05-16T07:23:05;4.55;;;0.70;;
25717;SDS011;13574;52.040;5.692;2023-05-16T07:25:31;3.85;;;0.93;;
25717;SDS011;13574;52.040;5.692;2023-05-16T07:27:57;5.25;;;1.23;;
25717;SDS011;13574;52.040;5.692;2023-05-16T07:30:22;3.85;;;0.80;;
25717;SDS011;13574;52.040;5.692;2023-05-16T07:32:50;6.18;;;0.88;;
25717;SDS011;13574;52.040;5.692;2023-05-16T07:35:15;7.43;;;0.85;;
25717;SDS011;13574;52.040;5.692;2023-05-16T07:37:41;3.80;;;0.88;;
25717;SDS011;13574;52.040;5.692;2023-05-16T07:40:08;3.78;;;0.63;;
25717;SDS011;13574;52.040;5.692;2023-05-16T07:42:34;3.72;;;0.98;;
25717;SDS011;13574;52.040;5.692;2023-05-16T07:45:00;3.08;;;0.80;;
25717;SDS011;13574;52.040;5.692;2023-05-16T07:47:26;2.70;;;0.73;;
25717;SDS011;13574;52.040;5.692;2023-05-16T07:49:52;3.17;;;0.65;;
25717;SDS011;13574;52.040;5.692;2023-05-16T07:52:18;6.03;;;1.00;;
25717;SDS011;13574;52.040;5.692;2023-05-16T07:54:45;3.13;;;0.88;;
25717;SDS011;13574;52.040;5.692;2023-05-16T07:57:12;4.40;;;0.90;;
25717;SDS011;13574;52.040;5.692;2023-05-16T07:59:39;2.63;;;0.68;;
25717;SDS011;13574;52.040;5.692;2023-05-16T08:02:04;3.35;;;1.00;;
25717;SDS011;13574;52.040;5.692;2023-05-16T08:04:30;3.13;;;0.77;;
25717;SDS011;13574;52.040;5.692;2023-05-16T08:06:56;4.80;;;0.80;;
25717;SDS011;13574;52.040;5.692;2023-05-16T08:09:22;1.95;;;0.70;;
25717;SDS011;13574;52.040;5.692;2023-05-16T08:11:47;1.73;;;0.70;;
25717;SDS011;13574;52.040;5.692;2023-05-16T08:14:13;3.95;;;0.70;;
25717;SDS011;13574;52.040;5.692;2023-05-16T08:16:39;1.83;;;0.55;;
25717;SDS011;13574;52.040;5.692;2023-05-16T08:19:05;3.63;;;0.98;;
25717;SDS011;13574;52.040;5.692;2023-05-16T08:21:31;1.30;;;0.47;;
25717;SDS011;13574;52.040;5.692;2023-05-16T08:23:57;3.45;;;0.50;;
25717;SDS011;13574;52.040;5.692;2023-05-16T08:26:22;1.95;;;0.40;;
25717;SDS011;13574;52.040;5.692;2023-05-16T08:28:49;1.20;;;0.40;;
25717;SDS011;13574;52.040;5.692;2023-05-16T08:31:14;1.27;;;0.40;;
25717;SDS011;13574;52.040;5.692;2023-05-16T08:33:40;2.47;;;0.47;;
25717;SDS011;13574;52.040;5.692;2023-05-16T08:36:08;5.57;;;0.60;;
25717;SDS011;13574;52.040;5.692;2023-05-16T08:38:34;1.20;;;0.50;;
25717;SDS011;13574;52.040;5.692;2023-05-16T08:40:59;1.92;;;0.32;;
25717;SDS011;13574;52.040;5.692;2023-05-16T08:43:25;3.08;;;0.60;;
25717;SDS011;13574;52.040;5.692;2023-05-16T08:45:51;1.42;;;0.47;;
25717;SDS011;13574;52.040;5.692;2023-05-16T08:48:16;2.47;;;0.57;;
25717;SDS011;13574;52.040;5.692;2023-05-16T08:50:47;1.75;;;0.70;;
25717;SDS011;13574;52.040;5.692;2023-05-16T08:53:13;3.10;;;0.65;;
25717;SDS011;13574;52.040;5.692;2023-05-16T08:55:45;3.28;;;0.60;;
25717;SDS011;13574;52.040;5.692;2023-05-16T08:58:13;2.40;;;0.50;;
25717;SDS011;13574;52.040;5.692;2023-05-16T09:00:40;5.43;;;0.80;;
25717;SDS011;13574;52.040;5.692;2023-05-16T09:03:06;2.85;;;0.70;;
25717;SDS011;13574;52.040;5.692;2023-05-16T09:05:32;3.13;;;0.77;;
25717;SDS011;13574;52.040;5.692;2023-05-16T09:07:58;4.15;;;1.40;;
25717;SDS011;13574;52.040;5.692;2023-05-16T09:10:24;4.13;;;0.80;;
25717;SDS011;13574;52.040;5.692;2023-05-16T09:12:49;2.45;;;0.80;;
25717;SDS011;13574;52.040;5.692;2023-05-16T09:15:16;2.42;;;0.80;;
25717;SDS011;13574;52.040;5.692;2023-05-16T09:17:43;3.30;;;0.93;;
25717;SDS011;13574;52.040;5.692;2023-05-16T09:20:14;2.40;;;1.00;;
25717;SDS011;13574;52.040;5.692;2023-05-16T09:22:54;2.25;;;0.90;;
25717;SDS011;13574;52.040;5.692;2023-05-16T09:25:21;2.88;;;0.60;;
25717;SDS011;13574;52.040;5.692;2023-05-16T09:27:51;6.15;;;1.15;;
25717;SDS011;13574;52.040;5.692;2023-05-16T09:30:22;2.95;;;0.65;;
25717;SDS011;13574;52.040;5.692;2023-05-16T09:32:51;2.72;;;0.60;;
25717;SDS011;13574;52.040;5.692;2023-05-16T09:35:18;2.25;;;0.63;;
25717;SDS011;13574;52.040;5.692;2023-05-16T09:37:48;2.67;;;0.70;;
25717;SDS011;13574;52.040;5.692;2023-05-16T09:40:19;2.83;;;0.55;;
25717;SDS011;13574;52.040;5.692;2023-05-16T09:42:46;1.45;;;0.52;;
25717;SDS011;13574;52.040;5.692;2023-05-16T09:45:12;2.25;;;0.70;;
25717;SDS011;13574;52.040;5.692;2023-05-16T09:47:38;4.63;;;0.85;;
25717;SDS011;13574;52.040;5.692;2023-05-16T09:50:10;3.05;;;0.70;;
25717;SDS011;13574;52.040;5.692;2023-05-16T09:52:40;2.42;;;0.65;;
25717;SDS011;13574;52.040;5.692;2023-05-16T09:55:07;3.15;;;0.68;;
25717;SDS011;13574;52.040;5.692;2023-05-16T09:57:37;3.03;;;0.63;;
25717;SDS011;13574;52.040;5.692;2023-05-16T10:00:06;2.42;;;0.70;;
25717;SDS011;13574;52.040;5.692;2023-05-16T10:02:35;2.28;;;0.50;;
25717;SDS011;13574;52.040;5.692;2023-05-16T10:05:02;4.03;;;1.02;;
25717;SDS011;13574;52.040;5.692;2023-05-16T10:07:29;3.40;;;0.75;;
25717;SDS011;13574;52.040;5.692;2023-05-16T10:09:57;2.88;;;0.60;;
25717;SDS011;13574;52.040;5.692;2023-05-16T10:12:25;2.58;;;0.70;;
25717;SDS011;13574;52.040;5.692;2023-05-16T10:14:55;3.33;;;0.70;;
25717;SDS011;13574;52.040;5.692;2023-05-16T10:17:22;2.20;;;0.65;;
25717;SDS011;13574;52.040;5.692;2023-05-16T10:19:49;4.47;;;0.70;;
25717;SDS011;13574;52.040;5.692;2023-05-16T10:22:16;2.60;;;0.57;;
25717;SDS011;13574;52.040;5.692;2023-05-16T10:27:46;5.72;;;0.80;;
25717;SDS011;13574;52.040;5.692;2023-05-16T10:30:12;2.78;;;0.60;;
25717;SDS011;13574;52.040;5.692;2023-05-16T10:32:41;2.50;;;0.60;;
25717;SDS011;13574;52.040;5.692;2023-05-16T10:35:07;2.45;;;0.52;;
25717;SDS011;13574;52.040;5.692;2023-05-16T10:37:34;3.50;;;0.70;;
25717;SDS011;13574;52.040;5.692;2023-05-16T10:40:00;1.08;;;0.40;;
25717;SDS011;13574;52.040;5.692;2023-05-16T10:47:54;1.88;;;0.63;;
25717;SDS011;13574;52.040;5.692;2023-05-16T10:50:37;1.90;;;0.63;;
25717;SDS011;13574;52.040;5.692;2023-05-16T10:53:18;2.85;;;0.70;;
25717;SDS011;13574;52.040;5.692;2023-05-16T11:01:13;3.80;;;0.77;;
25717;SDS011;13574;52.040;5.692;2023-05-16T11:11:37;3.10;;;0.70;;
25717;SDS011;13574;52.040;5.692;2023-05-16T11:14:06;3.60;;;0.70;;
25717;SDS011;13574;52.040;5.692;2023-05-16T11:16:33;2.08;;;0.73;;
25717;SDS011;13574;52.040;5.692;2023-05-16T11:19:05;1.55;;;0.63;;
25717;SDS011;13574;52.040;5.692;2023-05-16T11:24:29;4.35;;;0.75;;
25717;SDS011;13574;52.040;5.692;2023-05-16T11:26:56;2.50;;;0.75;;
25717;SDS011;13574;52.040;5.692;2023-05-16T11:29:24;1.70;;;0.55;;
25717;SDS011;13574;52.040;5.692;2023-05-16T11:31:51;1.83;;;0.60;;
25717;SDS011;13574;52.040;5.692;2023-05-16T11:34:17;2.63;;;0.70;;
25717;SDS011;13574;52.040;5.692;2023-05-16T11:36:43;1.70;;;0.60;;
25717;SDS011;13574;52.040;5.692;2023-05-16T11:39:09;3.13;;;0.75;;
25717;SDS011;13574;52.040;5.692;2023-05-16T11:41:36;6.18;;;0.80;;
25717;SDS011;13574;52.040;5.692;2023-05-16T11:44:03;3.60;;;1.00;;
25717;SDS011;13574;52.040;5.692;2023-05-16T11:46:32;3.95;;;0.80;;
25717;SDS011;13574;52.040;5.692;2023-05-16T11:48:58;2.55;;;0.80;;
25717;SDS011;13574;52.040;5.692;2023-05-16T11:51:24;2.72;;;0.90;;
25717;SDS011;13574;52.040;5.692;2023-05-16T11:53:50;3.33;;;0.70;;
25717;SDS011;13574;52.040;5.692;2023-05-16T11:56:16;2.70;;;0.77;;
25717;SDS011;13574;52.040;5.692;2023-05-16T11:58:42;2.20;;;0.65;;
25717;SDS011;13574;52.040;5.692;2023-05-16T12:01:08;2.15;;;0.70;;
25717;SDS011;13574;52.040;5.692;2023-05-16T12:03:34;1.42;;;0.50;;
25717;SDS011;13574;52.040;5.692;2023-05-16T12:06:00;3.15;;;0.85;;
25717;SDS011;13574;52.040;5.692;2023-05-16T12:08:27;3.05;;;0.70;;
25717;SDS011;13574;52.040;5.692;2023-05-16T12:10:52;3.83;;;0.70;;
25717;SDS011;13574;52.040;5.692;2023-05-16T12:13:19;1.70;;;0.70;;
25717;SDS011;13574;52.040;5.692;2023-05-16T12:15:47;4.07;;;0.60;;
25717;SDS011;13574;52.040;5.692;2023-05-16T12:18:13;2.78;;;0.70;;
25717;SDS011;13574;52.040;5.692;2023-05-16T12:20:40;3.00;;;0.60;;
25717;SDS011;13574;52.040;5.692;2023-05-16T12:23:10;2.42;;;0.50;;
25717;SDS011;13574;52.040;5.692;2023-05-16T12:25:36;3.22;;;0.55;;
25717;SDS011;13574;52.040;5.692;2023-05-16T12:28:11;3.70;;;0.60;;
25717;SDS011;13574;52.040;5.692;2023-05-16T12:30:39;4.03;;;0.50;;
25717;SDS011;13574;52.040;5.692;2023-05-16T12:33:07;4.20;;;0.60;;
25717;SDS011;13574;52.040;5.692;2023-05-16T12:35:41;2.63;;;0.60;;
25717;SDS011;13574;52.040;5.692;2023-05-16T12:38:09;2.22;;;0.70;;
25717;SDS011;13574;52.040;5.692;2023-05-16T12:40:36;1.60;;;0.50;;
25717;SDS011;13574;52.040;5.692;2023-05-16T12:43:04;5.50;;;0.60;;
25717;SDS011;13574;52.040;5.692;2023-05-16T12:45:37;2.47;;;0.70;;
25717;SDS011;13574;52.040;5.692;2023-05-16T12:48:10;4.32;;;0.70;;
25717;SDS011;13574;52.040;5.692;2023-05-16T12:50:38;4.55;;;0.85;;
25717;SDS011;13574;52.040;5.692;2023-05-16T12:53:04;3.53;;;0.50;;
25717;SDS011;13574;52.040;5.692;2023-05-16T12:55:36;3.85;;;0.73;;
25717;SDS011;13574;52.040;5.692;2023-05-16T12:58:02;2.83;;;0.65;;
25717;SDS011;13574;52.040;5.692;2023-05-16T13:00:28;2.67;;;0.73;;
25717;SDS011;13574;52.040;5.692;2023-05-16T13:02:53;4.57;;;0.60;;
25717;SDS011;13574;52.040;5.692;2023-05-16T13:05:19;5.93;;;0.80;;
25717;SDS011;13574;52.040;5.692;2023-05-16T13:07:47;2.47;;;0.80;;
25717;SDS011;13574;52.040;5.692;2023-05-16T13:10:16;3.17;;;1.40;;
25717;SDS011;13574;52.040;5.692;2023-05-16T13:12:42;2.03;;;0.70;;
25717;SDS011;13574;52.040;5.692;2023-05-16T13:15:09;2.70;;;0.70;;
25717;SDS011;13574;52.040;5.692;2023-05-16T13:17:39;2.53;;;0.70;;
25717;SDS011;13574;52.040;5.692;2023-05-16T13:20:06;5.18;;;0.60;;
25717;SDS011;13574;52.040;5.692;2023-05-16T13:22:38;2.00;;;0.70;;
25717;SDS011;13574;52.040;5.692;2023-05-16T13:25:05;5.35;;;0.93;;
25717;SDS011;13574;52.040;5.692;2023-05-16T13:27:31;4.88;;;0.90;;
25717;SDS011;13574;52.040;5.692;2023-05-16T13:29:57;2.05;;;0.80;;
25717;SDS011;13574;52.040;5.692;2023-05-16T13:32:23;1.35;;;0.68;;
25717;SDS011;13574;52.040;5.692;2023-05-16T13:34:49;1.45;;;0.75;;
25717;SDS011;13574;52.040;5.692;2023-05-16T13:37:15;1.58;;;0.80;;
25717;SDS011;13574;52.040;5.692;2023-05-16T13:39:41;4.00;;;1.02;;
25717;SDS011;13574;52.040;5.692;2023-05-16T13:42:07;5.50;;;0.85;;
25717;SDS011;13574;52.040;5.692;2023-05-16T13:44:33;4.38;;;1.20;;
25717;SDS011;13574;52.040;5.692;2023-05-16T13:46:59;4.45;;;0.70;;
25717;SDS011;13574;52.040;5.692;2023-05-16T13:49:25;5.35;;;1.20;;
25717;SDS011;13574;52.040;5.692;2023-05-16T13:51:50;4.57;;;0.95;;
25717;SDS011;13574;52.040;5.692;2023-05-16T13:54:17;5.05;;;0.90;;
25717;SDS011;13574;52.040;5.692;2023-05-16T13:56:43;3.13;;;0.77;;
25717;SDS011;13574;52.040;5.692;2023-05-16T13:59:09;6.03;;;0.90;;
25717;SDS011;13574;52.040;5.692;2023-05-16T14:01:35;3.83;;;0.90;;
25717;SDS011;13574;52.040;5.692;2023-05-16T14:04:01;5.32;;;1.00;;
25717;SDS011;13574;52.040;5.692;2023-05-16T14:06:27;2.72;;;0.80;;
25717;SDS011;13574;52.040;5.692;2023-05-16T14:08:53;3.85;;;0.70;;
25717;SDS011;13574;52.040;5.692;2023-05-16T14:11:18;4.15;;;1.00;;
25717;SDS011;13574;52.040;5.692;2023-05-16T14:13:50;3.50;;;0.80;;
25717;SDS011;13574;52.040;5.692;2023-05-16T14:16:16;3.97;;;1.08;;
25717;SDS011;13574;52.040;5.692;2023-05-16T14:18:42;5.28;;;0.80;;
25717;SDS011;13574;52.040;5.692;2023-05-16T14:21:07;3.47;;;1.15;;
25717;SDS011;13574;52.040;5.692;2023-05-16T14:23:33;5.53;;;0.90;;
25717;SDS011;13574;52.040;5.692;2023-05-16T14:25:59;3.70;;;0.88;;
25717;SDS011;13574;52.040;5.692;2023-05-16T14:28:25;3.65;;;0.95;;
25717;SDS011;13574;52.040;5.692;2023-05-16T14:30:50;7.78;;;0.93;;
25717;SDS011;13574;52.040;5.692;2023-05-16T14:33:16;4.45;;;0.90;;
25717;SDS011;13574;52.040;5.692;2023-05-16T14:35:41;3.22;;;0.80;;
25717;SDS011;13574;52.040;5.692;2023-05-16T14:38:07;2.30;;;0.73;;
25717;SDS011;13574;52.040;5.692;2023-05-16T14:40:34;2.90;;;0.82;;
25717;SDS011;13574;52.040;5.692;2023-05-16T14:42:59;6.53;;;0.95;;
25717;SDS011;13574;52.040;5.692;2023-05-16T14:45:28;4.60;;;1.02;;
25717;SDS011;13574;52.040;5.692;2023-05-16T14:47:54;2.45;;;0.85;;
25717;SDS011;13574;52.040;5.692;2023-05-16T14:50:19;4.45;;;0.73;;
25717;SDS011;13574;52.040;5.692;2023-05-16T14:52:45;3.85;;;1.00;;
25717;SDS011;13574;52.040;5.692;2023-05-16T14:55:11;3.90;;;1.30;;
25717;SDS011;13574;52.040;5.692;2023-05-16T14:57:37;4.25;;;1.00;;
25717;SDS011;13574;52.040;5.692;2023-05-16T15:00:02;3.13;;;0.88;;
25717;SDS011;13574;52.040;5.692;2023-05-16T15:02:29;5.32;;;1.00;;
25717;SDS011;13574;52.040;5.692;2023-05-16T15:04:55;3.30;;;0.82;;
25717;SDS011;13574;52.040;5.692;2023-05-16T15:07:21;4.80;;;1.20;;
25717;SDS011;13574;52.040;5.692;2023-05-16T15:09:46;5.20;;;0.90;;
25717;SDS011;13574;52.040;5.692;2023-05-16T15:12:12;7.30;;;0.85;;
25717;SDS011;13574;52.040;5.692;2023-05-16T15:14:38;6.20;;;0.98;;
25717;SDS011;13574;52.040;5.692;2023-05-16T15:17:03;6.53;;;1.40;;